sensor_id;sensor_type;location;lat;lon;timestamp;pressure;altitude;pressure_sealevel;temperature;humidity
50859;BME280;36826;47.514;19.056;2022-11-15T00:01:14;100642.53;;;7.01;100.00
50859;BME280;36826;47.514;19.056;2022-11-15T00:03:40;100641.72;;;7.14;100.00
50859;BME280;36826;47.514;19.056;2022-11-15T00:06:05;100634.94;;;7.35;100.00
50859;BME280;36826;47.514;19.056;2022-11-15T00:08:32;100636.44;;;7.40;100.00
50859;BME280;36826;47.514;19.056;2022-11-15T00:10:59;100634.38;;;7.30;100.00
50859;BME280;36826;47.514;19.056;2022-11-15T00:13:24;100629.16;;;7.29;100.00
50859;BME280;36826;47.514;19.056;2022-11-15T00:15:50;100637.41;;;7.11;100.00
50859;BME280;36826;47.514;19.056;2022-11-15T00:18:16;100644.00;;;7.05;100.00
50859;BME280;36826;47.514;19.056;2022-11-15T00:20:41;100638.47;;;7.49;100.00
50859;BME280;36826;47.514;19.056;2022-11-15T00:23:08;100633.47;;;7.57;100.00
50859;BME280;36826;47.514;19.056;2022-11-15T00:25:33;100631.34;;;7.62;100.00
50859;BME280;36826;47.514;19.056;2022-11-15T00:28:00;100638.59;;;7.73;100.00
50859;BME280;36826;47.514;19.056;2022-11-15T00:30:26;100641.13;;;7.88;98.23
50859;BME280;36826;47.514;19.056;2022-11-15T00:32:52;100638.28;;;7.78;97.56
50859;BME280;36826;47.514;19.056;2022-11-15T00:35:18;100633.69;;;7.93;96.98
50859;BME280;36826;47.514;19.056;2022-11-15T00:37:44;100627.72;;;7.89;95.39
50859;BME280;36826;47.514;19.056;2022-11-15T00:40:11;100620.56;;;7.77;96.04
50859;BME280;36826;47.514;19.056;2022-11-15T00:42:38;100616.28;;;7.87;95.58
50859;BME280;36826;47.514;19.056;2022-11-15T00:45:03;100625.38;;;7.05;100.00
50859;BME280;36826;47.514;19.056;2022-11-15T00:47:29;100621.16;;;7.16;100.00
50859;BME280;36826;47.514;19.056;2022-11-15T00:49:54;100613.00;;;7.04;100.00
50859;BME280;36826;47.514;19.056;2022-11-15T00:52:20;100602.63;;;6.87;100.00
50859;BME280;36826;47.514;19.056;2022-11-15T00:54:45;100601.84;;;7.12;100.00
50859;BME280;36826;47.514;19.056;2022-11-15T00:57:11;100608.59;;;7.31;100.00
50859;BME280;36826;47.514;19.056;2022-11-15T00:59:36;100600.88;;;7.13;100.00
50859;BME280;36826;47.514;19.056;2022-11-15T01:02:02;100603.47;;;7.15;100.00
50859;BME280;36826;47.514;19.056;2022-11-15T01:04:27;100610.56;;;7.67;100.00
50859;BME280;36826;47.514;19.056;2022-11-15T01:06:53;100612.53;;;7.90;96.88
50859;BME280;36826;47.514;19.056;2022-11-15T01:09:19;100604.47;;;7.91;95.61
50859;BME280;36826;47.514;19.056;2022-11-15T01:11:44;100605.72;;;7.98;94.38
50859;BME280;36826;47.514;19.056;2022-11-15T01:14:09;100603.38;;;7.94;93.72
50859;BME280;36826;47.514;19.056;2022-11-15T01:16:35;100596.97;;;7.96;91.71
50859;BME280;36826;47.514;19.056;2022-11-15T01:19:02;100591.88;;;7.93;92.14
50859;BME280;36826;47.514;19.056;2022-11-15T01:21:27;100587.34;;;8.07;91.50
50859;BME280;36826;47.514;19.056;2022-11-15T01:23:54;100587.78;;;8.01;91.06
50859;BME280;36826;47.514;19.056;2022-11-15T01:26:20;100581.66;;;7.48;93.07
50859;BME280;36826;47.514;19.056;2022-11-15T01:28:46;100580.47;;;7.40;96.59
50859;BME280;36826;47.514;19.056;2022-11-15T01:31:14;100581.91;;;7.18;98.28
50859;BME280;36826;47.514;19.056;2022-11-15T01:33:41;100583.97;;;7.27;99.31
50859;BME280;36826;47.514;19.056;2022-11-15T01:36:10;100579.09;;;7.60;97.83
50859;BME280;36826;47.514;19.056;2022-11-15T01:38:36;100580.25;;;7.81;94.69
50859;BME280;36826;47.514;19.056;2022-11-15T01:41:01;100579.59;;;7.91;93.95
50859;BME280;36826;47.514;19.056;2022-11-15T01:43:29;100579.78;;;8.01;92.30
50859;BME280;36826;47.514;19.056;2022-11-15T01:45:59;100578.38;;;8.08;91.74
50859;BME280;36826;47.514;19.056;2022-11-15T01:48:30;100584.38;;;7.98;91.91
50859;BME280;36826;47.514;19.056;2022-11-15T01:50:58;100576.44;;;8.10;91.45
50859;BME280;36826;47.514;19.056;2022-11-15T01:53:26;100576.75;;;7.81;91.33
50859;BME280;36826;47.514;19.056;2022-11-15T01:55:52;100569.69;;;7.67;91.38
50859;BME280;36826;47.514;19.056;2022-11-15T01:58:18;100573.31;;;7.66;92.62
50859;BME280;36826;47.514;19.056;2022-11-15T02:00:44;100568.41;;;7.21;96.70
50859;BME280;36826;47.514;19.056;2022-11-15T02:03:10;100572.22;;;7.17;100.00
50859;BME280;36826;47.514;19.056;2022-11-15T02:05:36;100567.34;;;7.62;96.84
50859;BME280;36826;47.514;19.056;2022-11-15T02:08:02;100559.91;;;7.67;96.16
50859;BME280;36826;47.514;19.056;2022-11-15T02:10:28;100563.81;;;7.36;96.89
50859;BME280;36826;47.514;19.056;2022-11-15T02:12:54;100557.00;;;7.58;96.77
50859;BME280;36826;47.514;19.056;2022-11-15T02:15:24;100558.50;;;7.75;95.92
50859;BME280;36826;47.514;19.056;2022-11-15T02:18:37;100557.75;;;7.60;95.38
50859;BME280;36826;47.514;19.056;2022-11-15T02:24:03;100545.91;;;7.64;96.88
50859;BME280;36826;47.514;19.056;2022-11-15T02:32:22;100549.00;;;7.45;100.00
50859;BME280;36826;47.514;19.056;2022-11-15T02:37:37;100538.34;;;7.06;100.00
50859;BME280;36826;47.514;19.056;2022-11-15T02:40:18;100540.44;;;7.01;100.00
50859;BME280;36826;47.514;19.056;2022-11-15T02:42:53;100534.91;;;7.04;100.00
50859;BME280;36826;47.514;19.056;2022-11-15T02:45:46;100539.63;;;7.26;100.00
50859;BME280;36826;47.514;19.056;2022-11-15T02:48:15;100537.16;;;7.36;100.00
50859;BME280;36826;47.514;19.056;2022-11-15T02:50:41;100539.31;;;7.57;100.00
50859;BME280;36826;47.514;19.056;2022-11-15T02:53:08;100538.31;;;7.71;100.00
50859;BME280;36826;47.514;19.056;2022-11-15T02:55:41;100535.16;;;7.65;99.69
50859;BME280;36826;47.514;19.056;2022-11-15T03:07:25;100542.69;;;7.85;98.33
50859;BME280;36826;47.514;19.056;2022-11-15T03:09:57;100542.56;;;7.86;98.29
50859;BME280;36826;47.514;19.056;2022-11-15T03:15:04;100547.03;;;7.98;96.06
50859;BME280;36826;47.514;19.056;2022-11-15T03:17:38;100539.22;;;8.08;95.01
50859;BME280;36826;47.514;19.056;2022-11-15T03:20:07;100533.75;;;7.73;98.74
50859;BME280;36826;47.514;19.056;2022-11-15T03:22:36;100530.09;;;7.87;97.60
50859;BME280;36826;47.514;19.056;2022-11-15T03:25:07;100528.94;;;7.78;98.94
50859;BME280;36826;47.514;19.056;2022-11-15T03:27:40;100519.69;;;7.45;100.00
50859;BME280;36826;47.514;19.056;2022-11-15T03:30:09;100511.28;;;7.51;100.00
50859;BME280;36826;47.514;19.056;2022-11-15T03:32:38;100516.91;;;7.07;100.00
50859;BME280;36826;47.514;19.056;2022-11-15T03:35:15;100509.47;;;7.13;100.00
50859;BME280;36826;47.514;19.056;2022-11-15T03:37:56;100518.09;;;7.03;100.00
50859;BME280;36826;47.514;19.056;2022-11-15T03:40:28;100512.09;;;6.87;100.00
50859;BME280;36826;47.514;19.056;2022-11-15T03:43:18;100503.28;;;7.25;100.00
50859;BME280;36826;47.514;19.056;2022-11-15T03:45:54;100505.50;;;7.31;100.00
50859;BME280;36826;47.514;19.056;2022-11-15T03:48:24;100512.34;;;7.35;100.00
50859;BME280;36826;47.514;19.056;2022-11-15T03:50:52;100506.81;;;7.39;100.00
50859;BME280;36826;47.514;19.056;2022-11-15T03:53:17;100493.91;;;7.19;100.00
50859;BME280;36826;47.514;19.056;2022-11-15T03:55:43;100493.78;;;7.60;100.00
50859;BME280;36826;47.514;19.056;2022-11-15T03:58:08;100494.75;;;7.46;100.00
50859;BME280;36826;47.514;19.056;2022-11-15T04:00:34;100486.69;;;7.72;100.00
50859;BME280;36826;47.514;19.056;2022-11-15T04:02:59;100488.91;;;7.91;98.59
50859;BME280;36826;47.514;19.056;2022-11-15T04:05:25;100476.44;;;7.91;97.37
50859;BME280;36826;47.514;19.056;2022-11-15T04:07:50;100476.91;;;7.72;97.77
50859;BME280;36826;47.514;19.056;2022-11-15T04:10:16;100474.31;;;7.71;97.19
50859;BME280;36826;47.514;19.056;2022-11-15T04:12:43;100467.53;;;8.04;96.65
50859;BME280;36826;47.514;19.056;2022-11-15T04:15:11;100465.66;;;8.17;95.12
50859;BME280;36826;47.514;19.056;2022-11-15T04:17:49;100455.53;;;7.85;97.06
50859;BME280;36826;47.514;19.056;2022-11-15T04:20:26;100462.13;;;7.92;97.17
50859;BME280;36826;47.514;19.056;2022-11-15T04:23:13;100475.63;;;8.02;95.35
50859;BME280;36826;47.514;19.056;2022-11-15T04:25:59;100470.22;;;7.91;96.36
50859;BME280;36826;47.514;19.056;2022-11-15T04:28:26;100473.13;;;8.12;94.88
50859;BME280;36826;47.514;19.056;2022-11-15T04:30:51;100480.97;;;8.02;94.16
50859;BME280;36826;47.514;19.056;2022-11-15T04:33:17;100474.56;;;8.05;94.71
50859;BME280;36826;47.514;19.056;2022-11-15T04:35:42;100463.09;;;7.91;95.61
50859;BME280;36826;47.514;19.056;2022-11-15T04:38:09;100476.78;;;8.11;94.26
50859;BME280;36826;47.514;19.056;2022-11-15T04:40:35;100476.00;;;8.22;93.23
50859;BME280;36826;47.514;19.056;2022-11-15T04:43:01;100470.66;;;8.22;92.45
50859;BME280;36826;47.514;19.056;2022-11-15T04:45:26;100468.91;;;7.96;93.75
50859;BME280;36826;47.514;19.056;2022-11-15T04:47:52;100463.84;;;7.93;94.88
50859;BME280;36826;47.514;19.056;2022-11-15T04:50:17;100455.50;;;7.98;94.67
50859;BME280;36826;47.514;19.056;2022-11-15T04:52:50;100451.63;;;8.02;94.24
50859;BME280;36826;47.514;19.056;2022-11-15T04:55:16;100453.00;;;7.71;97.31
50859;BME280;36826;47.514;19.056;2022-11-15T04:57:42;100439.72;;;7.45;100.00
50859;BME280;36826;47.514;19.056;2022-11-15T05:00:10;100432.78;;;7.55;99.72
50859;BME280;36826;47.514;19.056;2022-11-15T05:02:36;100440.25;;;7.37;100.00
50859;BME280;36826;47.514;19.056;2022-11-15T05:05:20;100438.97;;;7.56;100.00
50859;BME280;36826;47.514;19.056;2022-11-15T05:07:45;100435.81;;;7.75;99.65
50859;BME280;36826;47.514;19.056;2022-11-15T05:10:11;100445.66;;;7.74;98.03
50859;BME280;36826;47.514;19.056;2022-11-15T05:12:37;100446.34;;;7.52;99.38
50859;BME280;36826;47.514;19.056;2022-11-15T05:15:02;100445.59;;;7.87;99.19
50859;BME280;36826;47.514;19.056;2022-11-15T05:17:28;100448.66;;;7.94;97.38
50859;BME280;36826;47.514;19.056;2022-11-15T05:19:54;100439.88;;;8.05;95.66
50859;BME280;36826;47.514;19.056;2022-11-15T05:22:19;100450.31;;;8.08;94.59
50859;BME280;36826;47.514;19.056;2022-11-15T05:24:45;100450.78;;;8.26;93.97
50859;BME280;36826;47.514;19.056;2022-11-15T05:27:11;100450.47;;;8.42;92.73
50859;BME280;36826;47.514;19.056;2022-11-15T05:29:36;100451.44;;;8.41;91.12
50859;BME280;36826;47.514;19.056;2022-11-15T05:32:04;100451.66;;;8.38;90.83
50859;BME280;36826;47.514;19.056;2022-11-15T05:34:30;100456.38;;;8.34;92.01
50859;BME280;36826;47.514;19.056;2022-11-15T05:36:56;100455.28;;;8.50;90.79
50859;BME280;36826;47.514;19.056;2022-11-15T05:39:21;100444.28;;;8.41;90.83
50859;BME280;36826;47.514;19.056;2022-11-15T05:41:50;100449.63;;;8.41;90.81
50859;BME280;36826;47.514;19.056;2022-11-15T05:44:19;100450.25;;;8.45;91.13
50859;BME280;36826;47.514;19.056;2022-11-15T05:46:47;100451.47;;;7.79;94.65
50859;BME280;36826;47.514;19.056;2022-11-15T05:49:17;100449.81;;;8.03;97.10
50859;BME280;36826;47.514;19.056;2022-11-15T05:51:46;100447.25;;;8.25;94.20
50859;BME280;36826;47.514;19.056;2022-11-15T05:54:14;100448.47;;;7.84;96.58
50859;BME280;36826;47.514;19.056;2022-11-15T05:56:39;100439.03;;;8.28;94.60
50859;BME280;36826;47.514;19.056;2022-11-15T05:59:05;100434.25;;;8.45;92.93
50859;BME280;36826;47.514;19.056;2022-11-15T06:01:32;100433.66;;;8.53;91.75
50859;BME280;36826;47.514;19.056;2022-11-15T06:03:58;100435.53;;;8.64;91.12
50859;BME280;36826;47.514;19.056;2022-11-15T06:06:23;100435.38;;;8.54;90.70
50859;BME280;36826;47.514;19.056;2022-11-15T06:08:48;100433.38;;;8.69;88.96
50859;BME280;36826;47.514;19.056;2022-11-15T06:11:14;100435.75;;;8.60;88.70
50859;BME280;36826;47.514;19.056;2022-11-15T06:13:39;100440.41;;;8.45;91.26
50859;BME280;36826;47.514;19.056;2022-11-15T06:16:05;100437.00;;;8.68;89.80
50859;BME280;36826;47.514;19.056;2022-11-15T06:18:34;100433.81;;;8.63;89.54
50859;BME280;36826;47.514;19.056;2022-11-15T06:21:00;100424.50;;;8.68;90.51
50859;BME280;36826;47.514;19.056;2022-11-15T06:23:26;100429.75;;;8.45;92.18
50859;BME280;36826;47.514;19.056;2022-11-15T06:25:52;100434.81;;;8.73;89.79
50859;BME280;36826;47.514;19.056;2022-11-15T06:28:17;100438.72;;;8.69;89.59
50859;BME280;36826;47.514;19.056;2022-11-15T06:30:43;100440.22;;;8.96;88.23
50859;BME280;36826;47.514;19.056;2022-11-15T06:33:08;100443.47;;;8.88;87.10
50859;BME280;36826;47.514;19.056;2022-11-15T06:35:35;100446.75;;;8.80;88.02
50859;BME280;36826;47.514;19.056;2022-11-15T06:38:08;100441.50;;;8.43;91.24
50859;BME280;36826;47.514;19.056;2022-11-15T06:40:38;100443.22;;;8.20;96.16
50859;BME280;36826;47.514;19.056;2022-11-15T06:43:04;100450.06;;;8.59;93.51
50859;BME280;36826;47.514;19.056;2022-11-15T06:45:30;100441.84;;;8.74;92.04
50859;BME280;36826;47.514;19.056;2022-11-15T06:47:56;100445.13;;;8.66;91.37
50859;BME280;36826;47.514;19.056;2022-11-15T06:50:22;100447.13;;;8.51;91.69
50859;BME280;36826;47.514;19.056;2022-11-15T06:52:47;100441.84;;;8.74;92.58
50859;BME280;36826;47.514;19.056;2022-11-15T06:55:13;100445.63;;;8.71;90.60
50859;BME280;36826;47.514;19.056;2022-11-15T06:57:51;100448.81;;;8.88;90.64
50859;BME280;36826;47.514;19.056;2022-11-15T07:00:19;100444.06;;;8.69;89.88
50859;BME280;36826;47.514;19.056;2022-11-15T07:02:45;100439.47;;;8.82;89.97
50859;BME280;36826;47.514;19.056;2022-11-15T07:05:11;100435.34;;;9.01;89.31
50859;BME280;36826;47.514;19.056;2022-11-15T07:07:37;100427.06;;;8.45;91.26
50859;BME280;36826;47.514;19.056;2022-11-15T07:10:02;100427.09;;;8.21;93.45
50859;BME280;36826;47.514;19.056;2022-11-15T07:12:28;100441.84;;;8.74;92.46
50859;BME280;36826;47.514;19.056;2022-11-15T07:14:53;100439.59;;;8.92;90.58
50859;BME280;36826;47.514;19.056;2022-11-15T07:17:19;100432.44;;;8.93;89.34
50859;BME280;36826;47.514;19.056;2022-11-15T07:21:42;100422.44;;;8.72;91.79
50859;BME280;36826;47.514;19.056;2022-11-15T07:24:08;100420.50;;;8.38;95.09
50859;BME280;36826;47.514;19.056;2022-11-15T07:26:33;100428.28;;;8.77;92.42
50859;BME280;36826;47.514;19.056;2022-11-15T07:28:59;100417.88;;;8.97;91.37
50859;BME280;36826;47.514;19.056;2022-11-15T07:31:24;100425.16;;;9.29;88.74
50859;BME280;36826;47.514;19.056;2022-11-15T07:33:50;100417.34;;;8.69;90.01
50859;BME280;36826;47.514;19.056;2022-11-15T07:36:16;100417.59;;;8.88;91.18
50859;BME280;36826;47.514;19.056;2022-11-15T07:38:41;100431.38;;;9.29;88.79
50859;BME280;36826;47.514;19.056;2022-11-15T07:41:07;100435.88;;;9.29;88.86
50859;BME280;36826;47.514;19.056;2022-11-15T07:43:33;100433.16;;;9.63;86.05
50859;BME280;36826;47.514;19.056;2022-11-15T07:46:03;100425.13;;;9.63;85.63
50859;BME280;36826;47.514;19.056;2022-11-15T07:48:29;100420.44;;;9.10;85.78
50859;BME280;36826;47.514;19.056;2022-11-15T07:50:55;100415.34;;;9.29;86.74
50859;BME280;36826;47.514;19.056;2022-11-15T07:53:20;100409.63;;;9.23;87.56
50859;BME280;36826;47.514;19.056;2022-11-15T07:55:46;100414.00;;;9.35;87.51
50859;BME280;36826;47.514;19.056;2022-11-15T07:58:11;100414.59;;;9.50;87.06
50859;BME280;36826;47.514;19.056;2022-11-15T08:00:37;100410.34;;;9.59;87.30
50859;BME280;36826;47.514;19.056;2022-11-15T08:03:09;100422.06;;;9.90;84.67
50859;BME280;36826;47.514;19.056;2022-11-15T08:05:36;100421.78;;;10.37;81.42
50859;BME280;36826;47.514;19.056;2022-11-15T08:08:02;100417.22;;;10.70;80.75
50859;BME280;36826;47.514;19.056;2022-11-15T08:10:28;100414.69;;;10.48;81.33
50859;BME280;36826;47.514;19.056;2022-11-15T08:13:12;100407.50;;;10.37;79.35
50859;BME280;36826;47.514;19.056;2022-11-15T08:15:38;100400.03;;;9.98;81.89
50859;BME280;36826;47.514;19.056;2022-11-15T08:18:06;100396.34;;;9.44;86.17
50859;BME280;36826;47.514;19.056;2022-11-15T08:20:33;100402.75;;;10.19;82.00
50859;BME280;36826;47.514;19.056;2022-11-15T08:23:01;100397.94;;;9.58;85.34
50859;BME280;36826;47.514;19.056;2022-11-15T08:25:28;100393.47;;;9.91;84.76
50859;BME280;36826;47.514;19.056;2022-11-15T08:27:55;100386.19;;;9.81;85.62
50859;BME280;36826;47.514;19.056;2022-11-15T08:30:21;100385.56;;;10.22;85.27
50859;BME280;36826;47.514;19.056;2022-11-15T08:32:47;100376.03;;;10.29;84.36
50859;BME280;36826;47.514;19.056;2022-11-15T08:35:12;100372.13;;;10.33;84.09
50859;BME280;36826;47.514;19.056;2022-11-15T08:37:38;100373.91;;;10.65;83.01
50859;BME280;36826;47.514;19.056;2022-11-15T08:40:04;100374.75;;;10.87;82.62
50859;BME280;36826;47.514;19.056;2022-11-15T08:42:30;100377.84;;;10.92;81.67
50859;BME280;36826;47.514;19.056;2022-11-15T08:44:55;100379.03;;;10.99;81.84
50859;BME280;36826;47.514;19.056;2022-11-15T08:47:21;100376.38;;;10.03;83.63
50859;BME280;36826;47.514;19.056;2022-11-15T08:49:46;100361.53;;;10.43;83.46
50859;BME280;36826;47.514;19.056;2022-11-15T08:52:12;100370.00;;;10.16;84.75
50859;BME280;36826;47.514;19.056;2022-11-15T08:54:38;100370.72;;;10.71;82.82
50859;BME280;36826;47.514;19.056;2022-11-15T08:57:04;100375.94;;;11.04;80.69
50859;BME280;36826;47.514;19.056;2022-11-15T08:59:29;100360.22;;;11.20;80.16
50859;BME280;36826;47.514;19.056;2022-11-15T09:01:54;100364.19;;;11.26;78.97
50859;BME280;36826;47.514;19.056;2022-11-15T09:04:20;100363.47;;;10.83;80.04
50859;BME280;36826;47.514;19.056;2022-11-15T09:06:45;100360.59;;;10.33;83.15
50859;BME280;36826;47.514;19.056;2022-11-15T09:09:11;100359.59;;;10.12;84.37
50859;BME280;36826;47.514;19.056;2022-11-15T09:11:36;100355.22;;;9.79;88.06
50859;BME280;36826;47.514;19.056;2022-11-15T09:14:01;100360.50;;;10.23;87.27
50859;BME280;36826;47.514;19.056;2022-11-15T09:16:27;100349.25;;;10.29;85.70
50859;BME280;36826;47.514;19.056;2022-11-15T09:18:53;100335.47;;;10.45;84.50
50859;BME280;36826;47.514;19.056;2022-11-15T09:21:19;100336.50;;;10.85;84.01
50859;BME280;36826;47.514;19.056;2022-11-15T09:23:45;100340.16;;;10.84;82.66
50859;BME280;36826;47.514;19.056;2022-11-15T09:26:10;100336.69;;;11.44;80.83
50859;BME280;36826;47.514;19.056;2022-11-15T09:28:36;100335.19;;;11.51;78.23
50859;BME280;36826;47.514;19.056;2022-11-15T09:31:04;100321.94;;;11.79;76.39
50859;BME280;36826;47.514;19.056;2022-11-15T09:33:30;100330.72;;;12.01;76.14
50859;BME280;36826;47.514;19.056;2022-11-15T09:36:00;100322.16;;;11.36;78.08
50859;BME280;36826;47.514;19.056;2022-11-15T09:38:26;100328.13;;;10.99;80.31
50859;BME280;36826;47.514;19.056;2022-11-15T09:41:13;100326.81;;;11.34;79.46
50859;BME280;36826;47.514;19.056;2022-11-15T09:49:21;100325.16;;;11.53;78.32
50859;BME280;36826;47.514;19.056;2022-11-15T09:51:49;100319.75;;;11.33;77.60
50859;BME280;36826;47.514;19.056;2022-11-15T09:54:29;100319.78;;;11.43;77.84
50859;BME280;36826;47.514;19.056;2022-11-15T09:56:57;100315.97;;;11.75;76.73
50859;BME280;36826;47.514;19.056;2022-11-15T10:05:19;100314.28;;;10.63;79.62
50859;BME280;36826;47.514;19.056;2022-11-15T10:08:02;100314.16;;;10.43;80.24
50859;BME280;36826;47.514;19.056;2022-11-15T10:10:41;100316.75;;;10.55;80.35
50859;BME280;36826;47.514;19.056;2022-11-15T10:13:15;100313.25;;;10.54;81.42
50859;BME280;36826;47.514;19.056;2022-11-15T10:15:43;100303.00;;;10.69;79.74
50859;BME280;36826;47.514;19.056;2022-11-15T10:18:23;100303.34;;;10.34;81.64
50859;BME280;36826;47.514;19.056;2022-11-15T10:20:59;100290.34;;;10.29;83.81
50859;BME280;36826;47.514;19.056;2022-11-15T10:23:26;100288.28;;;10.33;84.70
50859;BME280;36826;47.514;19.056;2022-11-15T10:25:59;100277.19;;;10.37;83.58
50859;BME280;36826;47.514;19.056;2022-11-15T10:28:29;100280.19;;;10.23;86.67
50859;BME280;36826;47.514;19.056;2022-11-15T10:30:59;100273.53;;;10.17;86.49
50859;BME280;36826;47.514;19.056;2022-11-15T10:41:17;100256.78;;;10.77;82.70
50859;BME280;36826;47.514;19.056;2022-11-15T10:43:43;100261.63;;;10.31;85.14
50859;BME280;36826;47.514;19.056;2022-11-15T10:46:23;100249.06;;;10.53;84.97
50859;BME280;36826;47.514;19.056;2022-11-15T10:48:49;100251.75;;;10.53;84.32
50859;BME280;36826;47.514;19.056;2022-11-15T10:51:25;100243.34;;;10.36;84.77
50859;BME280;36826;47.514;19.056;2022-11-15T10:53:56;100233.91;;;10.63;83.57
50859;BME280;36826;47.514;19.056;2022-11-15T10:56:24;100243.34;;;11.08;81.54
50859;BME280;36826;47.514;19.056;2022-11-15T10:58:55;100241.94;;;11.04;80.51
50859;BME280;36826;47.514;19.056;2022-11-15T11:01:28;100228.56;;;11.14;80.60
50859;BME280;36826;47.514;19.056;2022-11-15T11:04:09;100223.47;;;11.11;79.94
50859;BME280;36826;47.514;19.056;2022-11-15T11:06:52;100225.44;;;10.58;81.92
50859;BME280;36826;47.514;19.056;2022-11-15T11:09:31;100220.88;;;10.49;84.08
50859;BME280;36826;47.514;19.056;2022-11-15T11:11:57;100221.72;;;10.49;84.52
50859;BME280;36826;47.514;19.056;2022-11-15T11:14:25;100221.75;;;10.90;81.76
50859;BME280;36826;47.514;19.056;2022-11-15T11:25:35;100199.69;;;10.77;82.35
50859;BME280;36826;47.514;19.056;2022-11-15T11:31:05;100198.75;;;10.97;82.09
50859;BME280;36826;47.514;19.056;2022-11-15T11:41:47;100195.59;;;10.72;83.88
50859;BME280;36826;47.514;19.056;2022-11-15T11:47:00;100174.31;;;9.88;86.85
50859;BME280;36826;47.514;19.056;2022-11-15T11:52:34;100178.22;;;10.67;84.10
50859;BME280;36826;47.514;19.056;2022-11-15T11:55:16;100167.59;;;10.46;83.74
50859;BME280;36826;47.514;19.056;2022-11-15T11:58:13;100166.66;;;10.66;83.73
50859;BME280;36826;47.514;19.056;2022-11-15T12:00:43;100158.22;;;10.81;82.30
50859;BME280;36826;47.514;19.056;2022-11-15T12:05:56;100155.59;;;11.00;82.87
50859;BME280;36826;47.514;19.056;2022-11-15T12:08:46;100153.09;;;10.58;84.65
50859;BME280;36826;47.514;19.056;2022-11-15T12:11:15;100145.28;;;10.86;85.37
50859;BME280;36826;47.514;19.056;2022-11-15T12:13:43;100137.53;;;10.93;83.26
50859;BME280;36826;47.514;19.056;2022-11-15T12:16:17;100141.63;;;10.87;83.26
50859;BME280;36826;47.514;19.056;2022-11-15T12:18:49;100140.31;;;10.71;83.05
50859;BME280;36826;47.514;19.056;2022-11-15T12:21:50;100130.69;;;10.59;84.97
50859;BME280;36826;47.514;19.056;2022-11-15T12:27:32;100126.19;;;10.69;83.45
50859;BME280;36826;47.514;19.056;2022-11-15T12:30:04;100123.41;;;10.90;82.45
50859;BME280;36826;47.514;19.056;2022-11-15T12:32:35;100125.28;;;10.39;83.59
50859;BME280;36826;47.514;19.056;2022-11-15T12:35:03;100121.97;;;10.26;85.23
50859;BME280;36826;47.514;19.056;2022-11-15T12:45:26;100109.84;;;9.91;89.56
50859;BME280;36826;47.514;19.056;2022-11-15T12:47:52;100105.44;;;10.11;88.37
50859;BME280;36826;47.514;19.056;2022-11-15T12:59:06;100085.75;;;10.22;88.88
50859;BME280;36826;47.514;19.056;2022-11-15T13:04:25;100079.97;;;10.57;100.00
50859;BME280;36826;47.514;19.056;2022-11-15T13:07:04;100082.00;;;9.93;100.00
50859;BME280;36826;47.514;19.056;2022-11-15T13:12:07;100081.00;;;9.63;100.00
50859;BME280;36826;47.514;19.056;2022-11-15T13:17:02;100092.63;;;8.99;100.00
50859;BME280;36826;47.514;19.056;2022-11-15T13:19:28;100089.75;;;8.90;100.00
50859;BME280;36826;47.514;19.056;2022-11-15T13:21:54;100093.59;;;8.98;100.00
50859;BME280;36826;47.514;19.056;2022-11-15T13:24:38;100092.22;;;9.15;100.00
50859;BME280;36826;47.514;19.056;2022-11-15T13:27:30;100088.50;;;9.48;100.00
50859;BME280;36826;47.514;19.056;2022-11-15T13:29:56;100082.38;;;9.58;100.00
50859;BME280;36826;47.514;19.056;2022-11-15T13:32:21;100080.75;;;9.45;100.00
50859;BME280;36826;47.514;19.056;2022-11-15T13:34:49;100082.44;;;9.46;100.00
50859;BME280;36826;47.514;19.056;2022-11-15T13:37:36;100076.81;;;9.49;100.00
50859;BME280;36826;47.514;19.056;2022-11-15T13:42:46;100064.63;;;9.14;100.00
50859;BME280;36826;47.514;19.056;2022-11-15T13:45:15;100066.41;;;9.25;100.00
50859;BME280;36826;47.514;19.056;2022-11-15T13:47:41;100065.75;;;9.54;100.00
50859;BME280;36826;47.514;19.056;2022-11-15T13:50:11;100063.59;;;9.48;100.00
50859;BME280;36826;47.514;19.056;2022-11-15T13:52:37;100051.53;;;9.85;100.00
50859;BME280;36826;47.514;19.056;2022-11-15T13:55:14;100044.03;;;9.78;100.00
50859;BME280;36826;47.514;19.056;2022-11-15T13:57:50;100045.81;;;9.99;100.00
50859;BME280;36826;47.514;19.056;2022-11-15T14:00:41;100040.31;;;9.70;100.00
50859;BME280;36826;47.514;19.056;2022-11-15T14:03:28;100043.19;;;9.78;100.00
50859;BME280;36826;47.514;19.056;2022-11-15T14:08:38;100040.56;;;9.57;100.00
50859;BME280;36826;47.514;19.056;2022-11-15T14:13:32;100036.84;;;9.48;100.00
50859;BME280;36826;47.514;19.056;2022-11-15T14:16:17;100036.03;;;9.47;100.00
50859;BME280;36826;47.514;19.056;2022-11-15T14:21:10;100027.28;;;9.24;100.00
50859;BME280;36826;47.514;19.056;2022-11-15T14:23:37;100030.44;;;9.29;100.00
50859;BME280;36826;47.514;19.056;2022-11-15T14:26:03;100026.97;;;9.17;100.00
50859;BME280;36826;47.514;19.056;2022-11-15T14:28:31;100020.88;;;9.58;100.00
50859;BME280;36826;47.514;19.056;2022-11-15T14:30:59;100027.22;;;8.93;100.00
50859;BME280;36826;47.514;19.056;2022-11-15T14:33:29;100008.00;;;9.20;100.00
50859;BME280;36826;47.514;19.056;2022-11-15T14:35:57;100010.53;;;9.01;100.00
50859;BME280;36826;47.514;19.056;2022-11-15T14:38:26;100011.16;;;8.72;100.00
50859;BME280;36826;47.514;19.056;2022-11-15T14:40:51;100010.34;;;8.93;100.00
50859;BME280;36826;47.514;19.056;2022-11-15T14:43:16;100009.03;;;8.87;100.00
50859;BME280;36826;47.514;19.056;2022-11-15T14:45:42;100006.69;;;8.94;100.00